Millville Municipal Airport
KMIV : now visible

Airfield :











YOU CAN JOIN US ON...

 
LOGIN :

Register | Disclaimer

   EN    FR    IT 

 









Legend :    VFR   Marginal VFR   IFR   Intensive IFR   Very Intensive IFR
Visi :
Ceiling :
>= 8 km
>= 3000ft
5 to 8 km
1000 to 3000 ft
1500m to 5 km
500 to 1000 ft
800 to 1500m
200 to 500 ft
< 800m
< 200 ft
Symbols :   Thunderstorms  Fog  Heavy snow  Heavy precipitations  Wind > 20 kt






- Airport Elevation : 85 ft


KMIV - Millville Municipal

CURRENT METAR :
  • 081554Z AUTO 31013G22KT 10SM CLR 21/10 A2955 RMK AO2 PK WND 31026/1515 SLP005 T02110100

EXPIRED METARs :
  • 081454Z AUTO 31013G24KT 10SM CLR 20/10 A2956 RMK AO2 SLP009 T02000100 50004
  • 081354Z AUTO 28009KT 10SM CLR 17/12 A2957 RMK AO2 SLP010 T01670117

TAF KMIV
Valid from the 08 at 14:00 until the 09 at 12:00 UTC


081415Z 0814/0912 29010G16KT P6SM FEW050 SCT150
FM082200 09008KT P6SM FEW050
FM090100 VRB02KT P6SM SCT200



MET'MAP, your aeronautical weather chart ! - Copyright ORBIFLY December 2007 - Disclaimer

ORBIFLY MET'MAP TEAM :

Programming & Development : Alexandra Zaïnal
Concept & original design : Baudouin d'Aumeries
Assistance for programming : Marc-Olivier Méhu
Technical & hardware support : Manuel Goepfert

Contact : metmap@orbifly.com




SOURCES & CREDITS :

   NOAA       Earth
Advisory